South Aberdeen, Washington
Current Conditions -  °F | °C
As of 9:53 PM on Sunday 21 Dec 2014 (Local Time) from KHQM Reporting Station
Light Rain Light Rain  
Wind Chill: 52°   Ceiling: 3900
Heat Index: 52°   Visibility: 4mi
Dew Point: 51°   Wind: 9mph
Humidity: 97%   Direction: 250°WSW
Pressure: 30.13"   Gusts: NA
Location:  47.1445°N, 123.771°W
Report Text: KHQM 220553Z AUTO 25008KT 4SM -RA BR FEW012 BKN039 OVC050 11/11 A3013 RMK AO2 RAB51 SLP204 P0000 60000 T01110106 10117 20106 51015
Loading
Personal Weather Stations






























Interactive Weather Map New forecast layout! Learn more

10-Day Weather Forecast

Advertisements
Track Severe Weather on mobile